sensor_id;sensor_type;location;lat;lon;timestamp;temperature;humidity
23671;DHT22;12012;51.998;7.614;2023-11-21T00:01:54;7.40;26.00
23671;DHT22;12012;51.998;7.614;2023-11-21T00:04:20;7.40;1.00
23671;DHT22;12012;51.998;7.614;2023-11-21T00:06:46;7.50;1.00
23671;DHT22;12012;51.998;7.614;2023-11-21T00:09:13;7.50;1.00
23671;DHT22;12012;51.998;7.614;2023-11-21T00:11:41;7.60;1.00
23671;DHT22;12012;51.998;7.614;2023-11-21T00:14:06;7.60;1.00
23671;DHT22;12012;51.998;7.614;2023-11-21T00:16:32;7.60;1.00
23671;DHT22;12012;51.998;7.614;2023-11-21T00:18:58;7.70;1.00
23671;DHT22;12012;51.998;7.614;2023-11-21T00:21:23;7.70;1.00
23671;DHT22;12012;51.998;7.614;2023-11-21T00:23:49;7.70;1.00
23671;DHT22;12012;51.998;7.614;2023-11-21T00:26:14;7.70;1.00
23671;DHT22;12012;51.998;7.614;2023-11-21T00:28:40;7.70;1.00
23671;DHT22;12012;51.998;7.614;2023-11-21T00:31:05;7.70;1.00
23671;DHT22;12012;51.998;7.614;2023-11-21T00:33:32;7.70;1.00
23671;DHT22;12012;51.998;7.614;2023-11-21T00:35:57;7.80;1.00
23671;DHT22;12012;51.998;7.614;2023-11-21T00:38:23;7.80;1.00
23671;DHT22;12012;51.998;7.614;2023-11-21T00:40:48;7.80;1.00
23671;DHT22;12012;51.998;7.614;2023-11-21T00:43:14;7.80;1.00
23671;DHT22;12012;51.998;7.614;2023-11-21T00:45:40;7.80;1.00
23671;DHT22;12012;51.998;7.614;2023-11-21T00:48:06;7.90;1.00
23671;DHT22;12012;51.998;7.614;2023-11-21T00:50:33;7.90;1.00
23671;DHT22;12012;51.998;7.614;2023-11-21T00:52:59;7.90;1.00
23671;DHT22;12012;51.998;7.614;2023-11-21T00:55:25;7.90;1.00
23671;DHT22;12012;51.998;7.614;2023-11-21T00:57:51;7.90;1.00
23671;DHT22;12012;51.998;7.614;2023-11-21T01:00:17;7.90;1.00
23671;DHT22;12012;51.998;7.614;2023-11-21T01:02:45;7.90;1.00
23671;DHT22;12012;51.998;7.614;2023-11-21T01:05:12;7.90;1.00
23671;DHT22;12012;51.998;7.614;2023-11-21T01:07:38;7.90;1.00
23671;DHT22;12012;51.998;7.614;2023-11-21T01:10:03;7.90;1.00
23671;DHT22;12012;51.998;7.614;2023-11-21T01:12:34;7.90;1.00
23671;DHT22;12012;51.998;7.614;2023-11-21T01:14:59;7.90;1.00
23671;DHT22;12012;51.998;7.614;2023-11-21T01:17:26;7.90;1.00
23671;DHT22;12012;51.998;7.614;2023-11-21T01:19:52;7.80;1.00
23671;DHT22;12012;51.998;7.614;2023-11-21T01:22:18;7.90;1.00
23671;DHT22;12012;51.998;7.614;2023-11-21T01:24:47;7.90;1.00
23671;DHT22;12012;51.998;7.614;2023-11-21T01:27:13;7.90;1.00
23671;DHT22;12012;51.998;7.614;2023-11-21T01:29:38;7.90;1.00
23671;DHT22;12012;51.998;7.614;2023-11-21T01:32:04;7.90;1.00
23671;DHT22;12012;51.998;7.614;2023-11-21T01:34:32;7.90;1.00
23671;DHT22;12012;51.998;7.614;2023-11-21T01:36:57;7.90;1.00
23671;DHT22;12012;51.998;7.614;2023-11-21T01:39:23;7.90;1.00
23671;DHT22;12012;51.998;7.614;2023-11-21T01:41:50;7.90;1.00
23671;DHT22;12012;51.998;7.614;2023-11-21T01:44:16;7.90;1.00
23671;DHT22;12012;51.998;7.614;2023-11-21T01:46:42;8.00;1.00
23671;DHT22;12012;51.998;7.614;2023-11-21T01:49:09;8.00;1.00
23671;DHT22;12012;51.998;7.614;2023-11-21T01:51:39;8.00;1.00
23671;DHT22;12012;51.998;7.614;2023-11-21T01:54:05;8.00;1.00
23671;DHT22;12012;51.998;7.614;2023-11-21T01:56:32;8.00;1.00
23671;DHT22;12012;51.998;7.614;2023-11-21T01:58:58;8.00;1.00
23671;DHT22;12012;51.998;7.614;2023-11-21T02:01:23;8.00;1.00
23671;DHT22;12012;51.998;7.614;2023-11-21T02:03:49;8.10;10.10
23671;DHT22;12012;51.998;7.614;2023-11-21T02:06:14;8.10;1.00
23671;DHT22;12012;51.998;7.614;2023-11-21T02:08:40;8.10;1.00
23671;DHT22;12012;51.998;7.614;2023-11-21T02:11:07;8.10;1.00
23671;DHT22;12012;51.998;7.614;2023-11-21T02:13:34;8.10;1.00
23671;DHT22;12012;51.998;7.614;2023-11-21T02:16:00;8.10;1.00
23671;DHT22;12012;51.998;7.614;2023-11-21T02:18:26;8.10;1.00
23671;DHT22;12012;51.998;7.614;2023-11-21T02:20:55;8.10;1.00
23671;DHT22;12012;51.998;7.614;2023-11-21T02:23:21;8.10;1.00
23671;DHT22;12012;51.998;7.614;2023-11-21T02:25:48;8.20;1.00
23671;DHT22;12012;51.998;7.614;2023-11-21T02:28:14;8.10;1.00
23671;DHT22;12012;51.998;7.614;2023-11-21T02:30:41;8.20;1.00
23671;DHT22;12012;51.998;7.614;2023-11-21T02:33:08;8.20;1.00
23671;DHT22;12012;51.998;7.614;2023-11-21T02:35:33;8.20;1.00
23671;DHT22;12012;51.998;7.614;2023-11-21T02:38:00;8.20;1.00
23671;DHT22;12012;51.998;7.614;2023-11-21T02:40:26;8.20;1.00
23671;DHT22;12012;51.998;7.614;2023-11-21T02:42:52;8.30;1.00
23671;DHT22;12012;51.998;7.614;2023-11-21T02:45:19;8.30;1.00
23671;DHT22;12012;51.998;7.614;2023-11-21T02:47:46;8.30;1.00
23671;DHT22;12012;51.998;7.614;2023-11-21T02:50:12;8.30;1.00
23671;DHT22;12012;51.998;7.614;2023-11-21T02:52:38;8.40;1.00
23671;DHT22;12012;51.998;7.614;2023-11-21T02:55:06;8.40;1.00
23671;DHT22;12012;51.998;7.614;2023-11-21T02:57:32;8.40;1.00
23671;DHT22;12012;51.998;7.614;2023-11-21T02:59:59;8.40;1.00
23671;DHT22;12012;51.998;7.614;2023-11-21T03:02:25;8.40;1.00
23671;DHT22;12012;51.998;7.614;2023-11-21T03:04:51;8.50;1.00
23671;DHT22;12012;51.998;7.614;2023-11-21T03:07:17;8.50;1.00
23671;DHT22;12012;51.998;7.614;2023-11-21T03:09:45;8.50;1.00
23671;DHT22;12012;51.998;7.614;2023-11-21T03:12:11;8.50;1.00
23671;DHT22;12012;51.998;7.614;2023-11-21T03:14:38;8.50;1.00
23671;DHT22;12012;51.998;7.614;2023-11-21T03:17:03;8.50;1.00
23671;DHT22;12012;51.998;7.614;2023-11-21T03:19:30;8.60;1.00
23671;DHT22;12012;51.998;7.614;2023-11-21T03:21:56;8.50;1.00
23671;DHT22;12012;51.998;7.614;2023-11-21T03:24:21;8.50;1.00
23671;DHT22;12012;51.998;7.614;2023-11-21T03:26:48;8.50;1.00
23671;DHT22;12012;51.998;7.614;2023-11-21T03:29:13;8.60;1.00
23671;DHT22;12012;51.998;7.614;2023-11-21T03:31:40;8.60;1.00
23671;DHT22;12012;51.998;7.614;2023-11-21T03:34:06;8.60;1.00
23671;DHT22;12012;51.998;7.614;2023-11-21T03:36:32;8.60;1.00
23671;DHT22;12012;51.998;7.614;2023-11-21T03:38:57;8.60;1.00
23671;DHT22;12012;51.998;7.614;2023-11-21T03:41:23;8.60;1.00
23671;DHT22;12012;51.998;7.614;2023-11-21T03:43:48;8.60;1.00
23671;DHT22;12012;51.998;7.614;2023-11-21T03:46:14;8.60;1.00
23671;DHT22;12012;51.998;7.614;2023-11-21T03:48:40;8.60;1.00
23671;DHT22;12012;51.998;7.614;2023-11-21T03:51:06;8.60;1.00
23671;DHT22;12012;51.998;7.614;2023-11-21T03:53:32;8.60;1.00
23671;DHT22;12012;51.998;7.614;2023-11-21T03:55:58;8.60;1.00
23671;DHT22;12012;51.998;7.614;2023-11-21T03:58:23;8.60;1.00
23671;DHT22;12012;51.998;7.614;2023-11-21T04:00:49;8.60;10.30
23671;DHT22;12012;51.998;7.614;2023-11-21T04:03:14;8.60;1.00
23671;DHT22;12012;51.998;7.614;2023-11-21T04:05:40;8.60;9.20
23671;DHT22;12012;51.998;7.614;2023-11-21T04:08:06;8.60;2.60
23671;DHT22;12012;51.998;7.614;2023-11-21T04:10:32;8.60;12.30
23671;DHT22;12012;51.998;7.614;2023-11-21T04:12:58;8.50;12.70
23671;DHT22;12012;51.998;7.614;2023-11-21T04:15:24;8.60;1.00
23671;DHT22;12012;51.998;7.614;2023-11-21T04:17:49;8.60;1.00
23671;DHT22;12012;51.998;7.614;2023-11-21T04:20:15;8.60;1.00
23671;DHT22;12012;51.998;7.614;2023-11-21T04:22:41;8.60;1.00
23671;DHT22;12012;51.998;7.614;2023-11-21T04:25:13;8.60;1.00
23671;DHT22;12012;51.998;7.614;2023-11-21T04:27:39;8.60;1.00
23671;DHT22;12012;51.998;7.614;2023-11-21T04:30:06;8.60;1.00
23671;DHT22;12012;51.998;7.614;2023-11-21T04:32:31;8.60;1.00
23671;DHT22;12012;51.998;7.614;2023-11-21T04:34:57;8.60;1.00
23671;DHT22;12012;51.998;7.614;2023-11-21T04:37:23;8.70;1.00
23671;DHT22;12012;51.998;7.614;2023-11-21T04:39:49;8.60;1.00
23671;DHT22;12012;51.998;7.614;2023-11-21T04:42:15;8.70;1.00
23671;DHT22;12012;51.998;7.614;2023-11-21T04:44:40;8.70;1.00
23671;DHT22;12012;51.998;7.614;2023-11-21T04:47:06;8.70;1.00
23671;DHT22;12012;51.998;7.614;2023-11-21T04:49:33;8.70;1.00
23671;DHT22;12012;51.998;7.614;2023-11-21T04:51:59;8.70;1.00
23671;DHT22;12012;51.998;7.614;2023-11-21T04:54:24;8.70;1.00
23671;DHT22;12012;51.998;7.614;2023-11-21T04:56:50;8.70;1.00
23671;DHT22;12012;51.998;7.614;2023-11-21T04:59:15;8.70;1.00
23671;DHT22;12012;51.998;7.614;2023-11-21T05:01:41;8.70;1.00
23671;DHT22;12012;51.998;7.614;2023-11-21T05:04:06;8.70;1.00
23671;DHT22;12012;51.998;7.614;2023-11-21T05:06:34;8.70;1.00
23671;DHT22;12012;51.998;7.614;2023-11-21T05:08:59;8.70;1.00
23671;DHT22;12012;51.998;7.614;2023-11-21T05:11:26;8.60;1.00
23671;DHT22;12012;51.998;7.614;2023-11-21T05:13:52;8.60;1.00
23671;DHT22;12012;51.998;7.614;2023-11-21T05:16:19;8.70;1.00
23671;DHT22;12012;51.998;7.614;2023-11-21T05:18:45;8.60;1.00
23671;DHT22;12012;51.998;7.614;2023-11-21T05:21:10;8.60;1.00
23671;DHT22;12012;51.998;7.614;2023-11-21T05:23:36;8.60;1.00
23671;DHT22;12012;51.998;7.614;2023-11-21T05:26:03;8.60;1.00
23671;DHT22;12012;51.998;7.614;2023-11-21T05:28:28;8.60;1.00
23671;DHT22;12012;51.998;7.614;2023-11-21T05:30:54;8.60;1.00
23671;DHT22;12012;51.998;7.614;2023-11-21T05:33:20;8.60;1.00
23671;DHT22;12012;51.998;7.614;2023-11-21T05:35:46;8.50;1.00
23671;DHT22;12012;51.998;7.614;2023-11-21T05:38:14;8.50;1.00
23671;DHT22;12012;51.998;7.614;2023-11-21T05:40:39;8.50;1.00
23671;DHT22;12012;51.998;7.614;2023-11-21T05:43:05;8.50;1.00
23671;DHT22;12012;51.998;7.614;2023-11-21T05:45:30;8.50;1.00
23671;DHT22;12012;51.998;7.614;2023-11-21T05:47:57;8.50;1.00
23671;DHT22;12012;51.998;7.614;2023-11-21T05:50:23;8.50;1.00
23671;DHT22;12012;51.998;7.614;2023-11-21T05:52:48;8.50;1.00
23671;DHT22;12012;51.998;7.614;2023-11-21T05:55:15;8.50;1.00
23671;DHT22;12012;51.998;7.614;2023-11-21T05:57:42;8.50;1.00
23671;DHT22;12012;51.998;7.614;2023-11-21T06:00:09;8.40;1.00
23671;DHT22;12012;51.998;7.614;2023-11-21T06:02:48;8.40;1.30
23671;DHT22;12012;51.998;7.614;2023-11-21T06:05:17;8.40;13.40
23671;DHT22;12012;51.998;7.614;2023-11-21T06:07:43;8.50;6.70
23671;DHT22;12012;51.998;7.614;2023-11-21T06:10:11;8.40;1.00
23671;DHT22;12012;51.998;7.614;2023-11-21T06:12:40;8.40;10.00
23671;DHT22;12012;51.998;7.614;2023-11-21T06:15:09;8.40;5.90
23671;DHT22;12012;51.998;7.614;2023-11-21T06:17:35;8.40;8.00
23671;DHT22;12012;51.998;7.614;2023-11-21T06:20:02;8.40;18.60
23671;DHT22;12012;51.998;7.614;2023-11-21T06:22:37;8.40;30.30
23671;DHT22;12012;51.998;7.614;2023-11-21T06:25:03;8.30;45.90
23671;DHT22;12012;51.998;7.614;2023-11-21T06:27:38;8.30;71.60
23671;DHT22;12012;51.998;7.614;2023-11-21T06:30:04;8.30;52.10
23671;DHT22;12012;51.998;7.614;2023-11-21T06:32:32;8.30;54.90
23671;DHT22;12012;51.998;7.614;2023-11-21T06:34:58;8.30;88.00
23671;DHT22;12012;51.998;7.614;2023-11-21T06:37:26;8.30;88.70
23671;DHT22;12012;51.998;7.614;2023-11-21T06:39:52;8.30;90.20
23671;DHT22;12012;51.998;7.614;2023-11-21T06:42:18;8.20;91.20
23671;DHT22;12012;51.998;7.614;2023-11-21T06:44:45;8.30;90.70
23671;DHT22;12012;51.998;7.614;2023-11-21T06:47:11;8.20;90.20
23671;DHT22;12012;51.998;7.614;2023-11-21T06:49:37;8.20;90.40
23671;DHT22;12012;51.998;7.614;2023-11-21T06:52:04;8.20;96.30
23671;DHT22;12012;51.998;7.614;2023-11-21T06:54:31;8.20;99.90
23671;DHT22;12012;51.998;7.614;2023-11-21T06:56:56;8.20;99.90
23671;DHT22;12012;51.998;7.614;2023-11-21T06:59:22;8.20;99.90
23671;DHT22;12012;51.998;7.614;2023-11-21T07:01:49;8.20;99.90
23671;DHT22;12012;51.998;7.614;2023-11-21T07:04:15;8.20;99.90
23671;DHT22;12012;51.998;7.614;2023-11-21T07:06:40;8.20;99.90
23671;DHT22;12012;51.998;7.614;2023-11-21T07:09:06;8.20;99.90
23671;DHT22;12012;51.998;7.614;2023-11-21T07:11:34;8.20;99.90
23671;DHT22;12012;51.998;7.614;2023-11-21T07:14:00;8.20;99.90
23671;DHT22;12012;51.998;7.614;2023-11-21T07:16:28;8.30;99.90
23671;DHT22;12012;51.998;7.614;2023-11-21T07:18:55;8.30;99.90
23671;DHT22;12012;51.998;7.614;2023-11-21T07:21:21;8.30;99.90
23671;DHT22;12012;51.998;7.614;2023-11-21T07:23:47;8.30;99.90
23671;DHT22;12012;51.998;7.614;2023-11-21T07:26:12;8.30;99.90
23671;DHT22;12012;51.998;7.614;2023-11-21T07:28:38;8.30;99.90
23671;DHT22;12012;51.998;7.614;2023-11-21T07:31:03;8.30;99.90
23671;DHT22;12012;51.998;7.614;2023-11-21T07:33:29;8.40;99.90
23671;DHT22;12012;51.998;7.614;2023-11-21T07:35:55;8.40;99.70
23671;DHT22;12012;51.998;7.614;2023-11-21T07:38:20;8.40;98.70
23671;DHT22;12012;51.998;7.614;2023-11-21T07:40:46;8.40;98.40
23671;DHT22;12012;51.998;7.614;2023-11-21T07:43:11;8.40;97.30
23671;DHT22;12012;51.998;7.614;2023-11-21T07:45:37;8.50;99.90
23671;DHT22;12012;51.998;7.614;2023-11-21T07:48:03;8.50;99.90
23671;DHT22;12012;51.998;7.614;2023-11-21T07:50:30;8.50;99.90
23671;DHT22;12012;51.998;7.614;2023-11-21T07:52:57;8.50;99.90
23671;DHT22;12012;51.998;7.614;2023-11-21T07:55:23;8.50;99.90
23671;DHT22;12012;51.998;7.614;2023-11-21T07:57:50;8.60;99.90
23671;DHT22;12012;51.998;7.614;2023-11-21T08:00:18;8.80;99.90
23671;DHT22;12012;51.998;7.614;2023-11-21T08:02:46;8.90;99.90
23671;DHT22;12012;51.998;7.614;2023-11-21T08:05:12;9.10;99.90
23671;DHT22;12012;51.998;7.614;2023-11-21T08:07:38;9.10;99.90
23671;DHT22;12012;51.998;7.614;2023-11-21T08:10:04;9.20;99.90
23671;DHT22;12012;51.998;7.614;2023-11-21T08:12:30;9.30;99.90
23671;DHT22;12012;51.998;7.614;2023-11-21T08:14:56;9.40;99.90
23671;DHT22;12012;51.998;7.614;2023-11-21T08:17:21;9.50;99.90
23671;DHT22;12012;51.998;7.614;2023-11-21T08:19:48;9.50;99.90
23671;DHT22;12012;51.998;7.614;2023-11-21T08:22:15;9.40;99.90
23671;DHT22;12012;51.998;7.614;2023-11-21T08:24:43;9.40;99.90
23671;DHT22;12012;51.998;7.614;2023-11-21T08:27:09;9.30;99.90
23671;DHT22;12012;51.998;7.614;2023-11-21T08:29:34;9.30;99.90
23671;DHT22;12012;51.998;7.614;2023-11-21T08:32:01;9.30;99.90
23671;DHT22;12012;51.998;7.614;2023-11-21T08:34:27;9.30;99.90
23671;DHT22;12012;51.998;7.614;2023-11-21T08:36:54;9.30;99.90
23671;DHT22;12012;51.998;7.614;2023-11-21T08:39:20;9.30;99.90
23671;DHT22;12012;51.998;7.614;2023-11-21T08:41:45;9.20;99.90
23671;DHT22;12012;51.998;7.614;2023-11-21T08:44:11;9.20;99.90
23671;DHT22;12012;51.998;7.614;2023-11-21T08:46:36;9.10;99.90
23671;DHT22;12012;51.998;7.614;2023-11-21T08:49:03;9.10;99.90
23671;DHT22;12012;51.998;7.614;2023-11-21T08:51:29;9.10;99.90
23671;DHT22;12012;51.998;7.614;2023-11-21T08:53:54;9.10;99.90
23671;DHT22;12012;51.998;7.614;2023-11-21T08:56:24;9.10;99.90
23671;DHT22;12012;51.998;7.614;2023-11-21T08:58:50;9.10;99.90
23671;DHT22;12012;51.998;7.614;2023-11-21T09:01:16;9.10;99.90
23671;DHT22;12012;51.998;7.614;2023-11-21T09:03:42;9.10;99.90
23671;DHT22;12012;51.998;7.614;2023-11-21T09:06:09;9.10;99.90
23671;DHT22;12012;51.998;7.614;2023-11-21T09:08:35;9.10;99.90
23671;DHT22;12012;51.998;7.614;2023-11-21T09:11:00;9.10;99.90
23671;DHT22;12012;51.998;7.614;2023-11-21T09:13:26;9.00;99.90
23671;DHT22;12012;51.998;7.614;2023-11-21T09:15:52;9.00;99.90
23671;DHT22;12012;51.998;7.614;2023-11-21T09:18:17;9.00;99.90
23671;DHT22;12012;51.998;7.614;2023-11-21T09:20:43;9.00;99.90
23671;DHT22;12012;51.998;7.614;2023-11-21T09:23:12;9.00;99.90
23671;DHT22;12012;51.998;7.614;2023-11-21T09:25:37;9.00;99.90
23671;DHT22;12012;51.998;7.614;2023-11-21T09:28:04;9.00;99.90
23671;DHT22;12012;51.998;7.614;2023-11-21T09:30:34;9.00;99.90
23671;DHT22;12012;51.998;7.614;2023-11-21T09:33:01;9.00;99.90
23671;DHT22;12012;51.998;7.614;2023-11-21T09:35:26;9.00;99.90
23671;DHT22;12012;51.998;7.614;2023-11-21T09:37:53;9.00;99.90
23671;DHT22;12012;51.998;7.614;2023-11-21T09:40:21;9.00;99.90
23671;DHT22;12012;51.998;7.614;2023-11-21T09:42:57;9.10;99.90
23671;DHT22;12012;51.998;7.614;2023-11-21T09:47:54;9.10;99.90
23671;DHT22;12012;51.998;7.614;2023-11-21T09:50:23;9.10;99.90
23671;DHT22;12012;51.998;7.614;2023-11-21T09:55:36;9.10;99.90
23671;DHT22;12012;51.998;7.614;2023-11-21T09:58:04;9.10;99.90
23671;DHT22;12012;51.998;7.614;2023-11-21T10:00:33;9.20;99.90
23671;DHT22;12012;51.998;7.614;2023-11-21T10:02:59;9.20;99.90
23671;DHT22;12012;51.998;7.614;2023-11-21T10:05:25;9.20;99.90
23671;DHT22;12012;51.998;7.614;2023-11-21T10:07:51;9.30;99.90
23671;DHT22;12012;51.998;7.614;2023-11-21T10:10:20;9.30;99.90
23671;DHT22;12012;51.998;7.614;2023-11-21T10:12:50;9.40;99.90
23671;DHT22;12012;51.998;7.614;2023-11-21T10:15:21;9.40;99.90
23671;DHT22;12012;51.998;7.614;2023-11-21T10:17:49;9.50;99.90
23671;DHT22;12012;51.998;7.614;2023-11-21T10:20:14;9.50;99.90
23671;DHT22;12012;51.998;7.614;2023-11-21T10:22:42;9.60;99.90
23671;DHT22;12012;51.998;7.614;2023-11-21T10:25:08;9.60;99.90
23671;DHT22;12012;51.998;7.614;2023-11-21T10:27:35;9.70;99.90
23671;DHT22;12012;51.998;7.614;2023-11-21T10:30:02;9.70;99.90
23671;DHT22;12012;51.998;7.614;2023-11-21T10:32:29;9.70;99.90
23671;DHT22;12012;51.998;7.614;2023-11-21T10:34:59;9.70;99.90
23671;DHT22;12012;51.998;7.614;2023-11-21T10:37:32;9.70;99.90
23671;DHT22;12012;51.998;7.614;2023-11-21T10:39:58;9.70;99.90
23671;DHT22;12012;51.998;7.614;2023-11-21T10:42:24;9.80;99.90
23671;DHT22;12012;51.998;7.614;2023-11-21T10:44:50;9.80;99.90
23671;DHT22;12012;51.998;7.614;2023-11-21T10:47:16;9.90;99.90
23671;DHT22;12012;51.998;7.614;2023-11-21T10:49:44;10.20;99.90
23671;DHT22;12012;51.998;7.614;2023-11-21T10:52:13;10.40;99.90
23671;DHT22;12012;51.998;7.614;2023-11-21T10:54:43;10.60;99.90
23671;DHT22;12012;51.998;7.614;2023-11-21T10:57:10;10.80;99.90
23671;DHT22;12012;51.998;7.614;2023-11-21T10:59:36;11.00;99.90
23671;DHT22;12012;51.998;7.614;2023-11-21T11:02:24;11.10;99.90
23671;DHT22;12012;51.998;7.614;2023-11-21T11:04:54;11.30;99.90
23671;DHT22;12012;51.998;7.614;2023-11-21T11:07:26;11.40;99.90
23671;DHT22;12012;51.998;7.614;2023-11-21T11:09:54;11.50;99.90
23671;DHT22;12012;51.998;7.614;2023-11-21T11:12:20;11.50;99.90
23671;DHT22;12012;51.998;7.614;2023-11-21T11:14:46;11.60;98.90
23671;DHT22;12012;51.998;7.614;2023-11-21T11:17:13;11.60;97.00
23671;DHT22;12012;51.998;7.614;2023-11-21T11:19:39;11.70;94.90
23671;DHT22;12012;51.998;7.614;2023-11-21T11:22:37;11.60;87.70
23671;DHT22;12012;51.998;7.614;2023-11-21T11:28:20;11.50;78.60
23671;DHT22;12012;51.998;7.614;2023-11-21T11:33:53;11.10;59.60
23671;DHT22;12012;51.998;7.614;2023-11-21T11:36:36;11.00;64.00
23671;DHT22;12012;51.998;7.614;2023-11-21T11:39:03;10.80;69.70
23671;DHT22;12012;51.998;7.614;2023-11-21T11:41:31;10.70;72.20
23671;DHT22;12012;51.998;7.614;2023-11-21T11:44:02;10.60;70.60
23671;DHT22;12012;51.998;7.614;2023-11-21T11:46:44;10.50;70.80
23671;DHT22;12012;51.998;7.614;2023-11-21T11:49:23;10.40;73.70
23671;DHT22;12012;51.998;7.614;2023-11-21T11:54:55;10.20;78.00
23671;DHT22;12012;51.998;7.614;2023-11-21T11:57:24;10.10;76.00
23671;DHT22;12012;51.998;7.614;2023-11-21T12:00:10;10.10;76.50
23671;DHT22;12012;51.998;7.614;2023-11-21T12:02:36;10.00;78.50
23671;DHT22;12012;51.998;7.614;2023-11-21T12:05:26;10.00;79.90
23671;DHT22;12012;51.998;7.614;2023-11-21T12:07:59;9.90;80.20
23671;DHT22;12012;51.998;7.614;2023-11-21T12:10:30;9.90;79.40
23671;DHT22;12012;51.998;7.614;2023-11-21T12:13:02;9.90;78.70
23671;DHT22;12012;51.998;7.614;2023-11-21T12:15:28;9.90;80.80
23671;DHT22;12012;51.998;7.614;2023-11-21T12:17:57;10.00;83.10
23671;DHT22;12012;51.998;7.614;2023-11-21T12:20:26;10.00;83.20
23671;DHT22;12012;51.998;7.614;2023-11-21T12:22:57;10.00;80.00
23671;DHT22;12012;51.998;7.614;2023-11-21T12:25:26;10.10;78.20
23671;DHT22;12012;51.998;7.614;2023-11-21T12:27:58;10.00;74.30
23671;DHT22;12012;51.998;7.614;2023-11-21T12:30:25;9.90;75.80
23671;DHT22;12012;51.998;7.614;2023-11-21T12:32:54;9.80;74.50
23671;DHT22;12012;51.998;7.614;2023-11-21T12:35:27;9.80;70.60
23671;DHT22;12012;51.998;7.614;2023-11-21T12:37:55;9.70;71.30
23671;DHT22;12012;51.998;7.614;2023-11-21T12:40:22;9.70;68.90
23671;DHT22;12012;51.998;7.614;2023-11-21T12:42:58;9.70;68.40
23671;DHT22;12012;51.998;7.614;2023-11-21T12:45:25;9.60;66.40
23671;DHT22;12012;51.998;7.614;2023-11-21T12:48:04;9.60;68.40
23671;DHT22;12012;51.998;7.614;2023-11-21T12:50:34;9.60;70.20
23671;DHT22;12012;51.998;7.614;2023-11-21T12:53:05;9.60;64.90
23671;DHT22;12012;51.998;7.614;2023-11-21T12:55:32;9.60;60.60
23671;DHT22;12012;51.998;7.614;2023-11-21T12:58:01;9.60;60.00
23671;DHT22;12012;51.998;7.614;2023-11-21T13:00:36;9.60;62.50
23671;DHT22;12012;51.998;7.614;2023-11-21T13:03:08;9.60;60.50
23671;DHT22;12012;51.998;7.614;2023-11-21T13:05:38;9.60;58.20
23671;DHT22;12012;51.998;7.614;2023-11-21T13:08:08;9.60;58.00
23671;DHT22;12012;51.998;7.614;2023-11-21T13:10:36;9.50;55.50
23671;DHT22;12012;51.998;7.614;2023-11-21T13:13:06;9.50;54.30
23671;DHT22;12012;51.998;7.614;2023-11-21T13:15:34;9.50;52.00
23671;DHT22;12012;51.998;7.614;2023-11-21T13:18:02;9.40;48.60
23671;DHT22;12012;51.998;7.614;2023-11-21T13:20:28;9.40;44.80
23671;DHT22;12012;51.998;7.614;2023-11-21T13:22:56;9.30;46.00
23671;DHT22;12012;51.998;7.614;2023-11-21T13:25:26;9.30;44.70
23671;DHT22;12012;51.998;7.614;2023-11-21T13:27:56;9.20;48.30
23671;DHT22;12012;51.998;7.614;2023-11-21T13:30:22;9.20;49.10
23671;DHT22;12012;51.998;7.614;2023-11-21T13:32:53;9.20;49.50
23671;DHT22;12012;51.998;7.614;2023-11-21T13:35:18;9.10;47.40
23671;DHT22;12012;51.998;7.614;2023-11-21T13:37:56;9.10;48.90
23671;DHT22;12012;51.998;7.614;2023-11-21T13:40:23;9.00;45.90
23671;DHT22;12012;51.998;7.614;2023-11-21T13:42:55;9.00;44.70
23671;DHT22;12012;51.998;7.614;2023-11-21T13:45:23;9.00;45.90
23671;DHT22;12012;51.998;7.614;2023-11-21T13:47:50;8.90;43.40
23671;DHT22;12012;51.998;7.614;2023-11-21T13:50:24;8.90;41.70
23671;DHT22;12012;51.998;7.614;2023-11-21T13:52:54;8.90;50.40
23671;DHT22;12012;51.998;7.614;2023-11-21T13:55:20;8.90;46.90
23671;DHT22;12012;51.998;7.614;2023-11-21T13:57:47;8.80;42.40
23671;DHT22;12012;51.998;7.614;2023-11-21T14:02:56;8.80;31.90
23671;DHT22;12012;51.998;7.614;2023-11-21T14:05:26;8.80;17.50
23671;DHT22;12012;51.998;7.614;2023-11-21T14:07:57;8.70;16.90
23671;DHT22;12012;51.998;7.614;2023-11-21T14:10:31;8.70;9.80
23671;DHT22;12012;51.998;7.614;2023-11-21T14:13:08;8.70;6.70
23671;DHT22;12012;51.998;7.614;2023-11-21T14:15:38;8.70;1.00
23671;DHT22;12012;51.998;7.614;2023-11-21T14:18:07;8.70;3.90
23671;DHT22;12012;51.998;7.614;2023-11-21T14:20:37;8.70;1.00
23671;DHT22;12012;51.998;7.614;2023-11-21T14:23:03;8.70;1.20
23671;DHT22;12012;51.998;7.614;2023-11-21T14:25:31;8.70;1.00
23671;DHT22;12012;51.998;7.614;2023-11-21T14:27:57;8.70;1.00
23671;DHT22;12012;51.998;7.614;2023-11-21T14:30:23;8.70;1.00
23671;DHT22;12012;51.998;7.614;2023-11-21T14:32:49;8.60;1.00
23671;DHT22;12012;51.998;7.614;2023-11-21T14:35:16;8.60;1.00
23671;DHT22;12012;51.998;7.614;2023-11-21T14:37:42;8.60;1.00
23671;DHT22;12012;51.998;7.614;2023-11-21T14:40:09;8.60;1.00
23671;DHT22;12012;51.998;7.614;2023-11-21T14:42:34;8.60;1.00
23671;DHT22;12012;51.998;7.614;2023-11-21T14:45:03;8.60;1.00
23671;DHT22;12012;51.998;7.614;2023-11-21T14:47:32;8.50;1.00
23671;DHT22;12012;51.998;7.614;2023-11-21T14:49:58;8.50;1.00
23671;DHT22;12012;51.998;7.614;2023-11-21T14:52:26;8.50;1.00
23671;DHT22;12012;51.998;7.614;2023-11-21T14:55:00;8.50;1.00
23671;DHT22;12012;51.998;7.614;2023-11-21T14:57:46;8.40;1.00
23671;DHT22;12012;51.998;7.614;2023-11-21T15:00:16;8.40;1.00
23671;DHT22;12012;51.998;7.614;2023-11-21T15:03:09;8.40;1.00
23671;DHT22;12012;51.998;7.614;2023-11-21T15:05:36;8.30;1.00
23671;DHT22;12012;51.998;7.614;2023-11-21T15:08:04;8.30;1.00
23671;DHT22;12012;51.998;7.614;2023-11-21T15:10:47;8.30;1.00
23671;DHT22;12012;51.998;7.614;2023-11-21T15:13:18;8.30;1.00
23671;DHT22;12012;51.998;7.614;2023-11-21T15:15:44;8.30;1.00
23671;DHT22;12012;51.998;7.614;2023-11-21T15:18:09;8.20;1.00
23671;DHT22;12012;51.998;7.614;2023-11-21T15:20:39;8.10;1.00
23671;DHT22;12012;51.998;7.614;2023-11-21T15:23:05;8.10;1.00
23671;DHT22;12012;51.998;7.614;2023-11-21T15:25:31;8.10;1.00
23671;DHT22;12012;51.998;7.614;2023-11-21T15:27:57;8.00;1.00
23671;DHT22;12012;51.998;7.614;2023-11-21T15:30:23;8.00;1.00
23671;DHT22;12012;51.998;7.614;2023-11-21T15:32:51;7.90;1.00
23671;DHT22;12012;51.998;7.614;2023-11-21T15:35:18;7.80;1.00
23671;DHT22;12012;51.998;7.614;2023-11-21T15:37:44;7.80;1.00
23671;DHT22;12012;51.998;7.614;2023-11-21T15:40:11;7.70;1.00
23671;DHT22;12012;51.998;7.614;2023-11-21T15:42:38;7.70;1.00
23671;DHT22;12012;51.998;7.614;2023-11-21T15:45:04;7.70;1.00
23671;DHT22;12012;51.998;7.614;2023-11-21T15:47:32;7.70;1.00
23671;DHT22;12012;51.998;7.614;2023-11-21T15:49:58;7.60;1.00
23671;DHT22;12012;51.998;7.614;2023-11-21T15:52:24;7.60;1.00
23671;DHT22;12012;51.998;7.614;2023-11-21T15:54:49;7.60;1.00
23671;DHT22;12012;51.998;7.614;2023-11-21T15:57:15;7.60;1.00
23671;DHT22;12012;51.998;7.614;2023-11-21T15:59:42;7.60;1.00
23671;DHT22;12012;51.998;7.614;2023-11-21T16:02:08;7.60;1.00
23671;DHT22;12012;51.998;7.614;2023-11-21T16:04:35;7.60;1.00
23671;DHT22;12012;51.998;7.614;2023-11-21T16:07:03;7.60;1.00
23671;DHT22;12012;51.998;7.614;2023-11-21T16:09:31;7.50;1.00
23671;DHT22;12012;51.998;7.614;2023-11-21T16:11:58;7.50;1.00